Time;durP1;ratioP1;P1;durP2;ratioP2;P2;SDS_P1;SDS_P2;PMS_P1;PMS_P2;Temp;Humidity;BMP_temperature;BMP_pressure;BME280_temperature;BME280_humidity;BME280_pressure;Samples;Min_cycle;Max_cycle;Signal;HPM_P1;HPM_P2
2023/07/19 00:01:53;;;;;;;5.83;2.60;;;;;;;16.65;86.53;101253.00;4960766;28;20034;-90
2023/07/19 00:04:19;;;;;;;9.20;3.15;;;;;;;16.63;87.22;101246.09;4959325;28;20030;-90
2023/07/19 00:06:47;;;;;;;5.70;2.80;;;;;;;16.62;87.50;101242.53;4959123;28;20031;-90
2023/07/19 00:09:15;;;;;;;5.95;2.90;;;;;;;16.64;87.64;101243.13;4959638;28;20031;-90
2023/07/19 00:11:45;;;;;;;5.57;2.78;;;;;;;16.60;88.23;101241.94;4959184;28;20070;-90
2023/07/19 00:14:11;;;;;;;6.63;2.83;;;;;;;16.54;87.75;101242.09;4958925;28;20026;-90
2023/07/19 00:16:37;;;;;;;5.37;2.87;;;;;;;16.50;87.45;101247.22;4958735;28;20086;-90
2023/07/19 00:19:07;;;;;;;3.47;2.88;;;;;;;16.41;88.19;101252.25;4958909;28;20031;-90
2023/07/19 00:21:32;;;;;;;3.47;2.80;;;;;;;16.41;88.48;101249.53;4958957;28;20063;-90
2023/07/19 00:24:00;;;;;;;8.80;2.67;;;;;;;16.43;88.78;101238.31;4958671;28;20031;-90
2023/07/19 00:26:26;;;;;;;6.37;2.50;;;;;;;16.38;88.59;101235.50;4975879;28;20034;-90
2023/07/19 00:28:52;;;;;;;5.70;2.63;;;;;;;16.36;88.75;101232.16;4958633;28;20034;-90
2023/07/19 00:31:17;;;;;;;4.22;2.05;;;;;;;16.39;89.96;101232.53;4958752;28;20055;-89
2023/07/19 00:33:48;;;;;;;4.57;2.60;;;;;;;16.35;89.06;101225.88;4959161;28;20460;-90
2023/07/19 00:36:19;;;;;;;5.45;2.25;;;;;;;16.32;89.47;101218.16;4958893;28;20026;-89
2023/07/19 00:38:46;;;;;;;3.92;2.25;;;;;;;16.33;89.25;101221.69;4943903;28;20038;-90
2023/07/19 00:41:22;;;;;;;;;;;;;;;;;;;;;
2023/07/19 00:43:50;;;;;;;4.40;2.20;;;;;;;16.26;89.71;101205.44;4976552;28;20455;-90
2023/07/19 00:46:15;;;;;;;4.75;2.50;;;;;;;16.20;91.05;101203.69;4958647;28;20041;-90
2023/07/19 00:48:44;;;;;;;4.07;2.10;;;;;;;16.17;90.83;101202.25;4966873;28;20058;-89
2023/07/19 00:51:10;;;;;;;8.18;2.28;;;;;;;16.16;91.28;101205.25;4978195;28;20034;-90
2023/07/19 00:53:37;;;;;;;6.63;2.40;;;;;;;16.12;91.20;101207.63;5010087;28;20501;-90
2023/07/19 00:56:06;;;;;;;5.35;2.30;;;;;;;16.06;91.64;101203.13;4977710;28;20038;-90
2023/07/19 00:58:32;;;;;;;4.00;2.30;;;;;;;16.04;92.03;101208.03;4977638;28;20061;-90
2023/07/19 01:01:01;;;;;;;5.70;2.05;;;;;;;16.03;93.44;101211.81;5010129;28;20065;-90
2023/07/19 01:03:35;;;;;;;4.45;2.10;;;;;;;16.02;93.19;101219.22;4977528;28;20445;-90
2023/07/19 01:06:03;;;;;;;5.75;2.50;;;;;;;16.00;93.38;101209.56;4979021;28;20034;-90
2023/07/19 01:08:38;;;;;;;4.00;2.30;;;;;;;15.93;92.86;101205.09;5010174;28;20570;-90
2023/07/19 01:11:06;;;;;;;4.78;2.20;;;;;;;15.91;92.74;101203.66;4961257;28;20125;-90
2023/07/19 01:13:31;;;;;;;5.57;2.40;;;;;;;15.90;93.57;101202.84;4977260;28;20047;-90
2023/07/19 01:15:57;;;;;;;4.50;2.10;;;;;;;15.91;93.48;101199.00;4976951;28;20022;-90
2023/07/19 01:18:30;;;;;;;6.30;2.28;;;;;;;15.90;93.82;101196.50;4977608;28;20375;-90
2023/07/19 01:20:59;;;;;;;5.05;1.90;;;;;;;15.90;92.78;101196.50;5010250;28;20042;-90
2023/07/19 01:23:24;;;;;;;4.67;2.10;;;;;;;15.94;92.47;101192.22;5009798;28;20034;-89
2023/07/19 01:25:53;;;;;;;3.60;2.30;;;;;;;15.87;93.27;101191.53;4976788;28;20057;-90
2023/07/19 01:28:22;;;;;;;5.47;2.13;;;;;;;15.95;93.77;101202.09;4977156;28;20377;-90
2023/07/19 01:30:47;;;;;;;9.02;2.45;;;;;;;15.94;92.89;101184.88;4961242;28;20038;-90
2023/07/19 01:33:18;;;;;;;7.17;2.10;;;;;;;15.88;92.87;101188.53;4976726;28;20030;-89
2023/07/19 01:35:45;;;;;;;5.45;2.45;;;;;;;15.88;93.10;101185.00;4994475;28;20022;-89
2023/07/19 01:38:15;;;;;;;5.45;1.85;;;;;;;15.86;93.96;101179.75;4977158;28;20087;-89
2023/07/19 01:40:46;;;;;;;5.43;2.05;;;;;;;15.82;94.24;101181.31;4977518;28;20037;-89
2023/07/19 01:43:11;;;;;;;10.93;2.45;;;;;;;15.82;94.07;101178.56;4961034;28;20430;-89
2023/07/19 01:45:37;;;;;;;7.03;2.50;;;;;;;15.78;93.33;101185.59;4960510;28;20061;-89
2023/07/19 01:48:02;;;;;;;8.73;2.37;;;;;;;15.79;93.69;101174.41;4974452;28;20047;-89
2023/07/19 01:50:29;;;;;;;8.77;2.30;;;;;;;15.79;93.08;101174.41;4994005;28;20069;-89
2023/07/19 01:52:55;;;;;;;7.97;2.50;;;;;;;15.77;93.48;101175.72;4961173;28;20042;-89
2023/07/19 01:55:23;;;;;;;9.20;2.70;;;;;;;15.79;93.92;101177.16;4976964;28;20038;-89
2023/07/19 01:57:48;;;;;;;10.90;2.40;;;;;;;15.78;95.20;101180.97;4994693;28;20030;-89
2023/07/19 02:00:16;;;;;;;8.37;2.60;;;;;;;15.83;96.12;101185.72;4976570;28;20042;-89
2023/07/19 02:02:44;;;;;;;12.18;2.35;;;;;;;15.83;94.60;101182.16;4976751;28;20053;-89
2023/07/19 02:05:14;;;;;;;7.88;2.70;;;;;;;15.85;95.65;101185.47;4976368;28;20027;-89
2023/07/19 02:07:44;;;;;;;7.20;2.88;;;;;;;15.82;94.64;101180.50;4961541;28;20036;-89
2023/07/19 02:10:15;;;;;;;7.60;2.40;;;;;;;15.82;93.49;101177.75;4976916;28;20398;-89
2023/07/19 02:12:41;;;;;;;6.38;2.78;;;;;;;15.84;95.02;101179.19;4977457;28;20459;-88
2023/07/19 02:15:07;;;;;;;6.57;2.40;;;;;;;15.91;95.18;101174.38;4976622;28;20038;-88
2023/07/19 02:17:33;;;;;;;6.53;2.70;;;;;;;15.93;94.15;101168.69;4976559;28;20026;-89
2023/07/19 02:20:07;;;;;;;5.53;2.03;;;;;;;16.01;95.19;101157.34;5009111;28;20463;-89
2023/07/19 02:22:32;;;;;;;7.65;2.92;;;;;;;15.98;93.23;101149.63;4976822;28;20062;-89
2023/07/19 02:25:00;;;;;;;6.33;2.90;;;;;;;15.98;94.68;101151.53;4994829;28;20074;-89
2023/07/19 02:27:26;;;;;;;6.95;3.00;;;;;;;15.99;95.29;101156.75;4961594;28;20363;-89
2023/07/19 02:29:51;;;;;;;6.47;2.80;;;;;;;16.08;96.41;101168.97;4976337;28;20034;-85
2023/07/19 02:32:17;;;;;;;5.83;2.87;;;;;;;16.13;94.31;101166.31;4976443;28;20038;-84
2023/07/19 02:34:42;;;;;;;6.15;3.10;;;;;;;16.17;92.34;101158.47;4976503;28;20038;-84
2023/07/19 02:37:07;;;;;;;6.73;2.67;;;;;;;16.17;93.45;101146.69;4960860;28;20040;-84
2023/07/19 02:39:33;;;;;;;5.73;3.10;;;;;;;16.19;92.77;101150.00;4944497;28;20030;-84
2023/07/19 02:41:58;;;;;;;6.68;2.80;;;;;;;16.18;92.98;101151.06;4960284;28;20114;-84
2023/07/19 02:44:24;;;;;;;6.23;2.70;;;;;;;16.19;94.91;101163.69;4960624;28;20125;-82
2023/07/19 02:46:49;;;;;;;4.40;2.80;;;;;;;16.22;94.37;101165.94;4976686;28;20121;-82
2023/07/19 02:49:15;;;;;;;5.73;2.70;;;;;;;16.23;93.99;101165.69;4964541;28;20495;-82
2023/07/19 02:51:40;;;;;;;5.03;2.78;;;;;;;16.29;93.07;101177.56;4957120;28;20489;-82
2023/07/19 02:54:06;;;;;;;7.13;3.00;;;;;;;16.30;91.88;101163.63;4941242;28;20487;-82
2023/07/19 02:56:31;;;;;;;4.67;3.20;;;;;;;16.30;91.28;101162.81;4960250;28;20038;-82
2023/07/19 02:58:59;;;;;;;8.73;2.93;;;;;;;16.29;92.65;101164.69;4944686;28;20467;-82
2023/07/19 03:01:27;;;;;;;5.10;3.10;;;;;;;16.23;90.94;101162.13;4929642;28;20129;-82
2023/07/19 03:03:52;;;;;;;5.18;3.70;;;;;;;16.16;90.81;101154.06;4977686;28;20062;-82
2023/07/19 03:06:18;;;;;;;7.53;4.07;;;;;;;16.10;98.17;101155.84;4944376;28;20070;-82
2023/07/19 03:08:44;;;;;;;8.77;3.80;;;;;;;15.77;100.00;101157.38;4960699;28;20399;-82
2023/07/19 03:11:09;;;;;;;6.88;3.42;;;;;;;15.48;100.00;101161.97;4928469;28;20472;-83
2023/07/19 03:13:37;;;;;;;9.27;3.90;;;;;;;15.36;100.00;101169.38;4977457;28;20476;-83
2023/07/19 03:16:05;;;;;;;6.90;3.97;;;;;;;15.19;100.00;101170.09;4944267;28;20050;-83
2023/07/19 03:18:30;;;;;;;5.85;3.80;;;;;;;15.11;100.00;101177.81;4960061;28;20121;-83
2023/07/19 03:21:01;;;;;;;8.10;4.27;;;;;;;15.03;100.00;101166.19;4960147;28;20113;-83
2023/07/19 03:23:30;;;;;;;9.10;4.38;;;;;;;14.99;100.00;101169.63;4960262;28;20050;-83
2023/07/19 03:26:03;;;;;;;13.18;4.72;;;;;;;14.97;100.00;101178.06;4976279;28;20055;-83
2023/07/19 03:28:30;;;;;;;6.77;4.20;;;;;;;14.98;100.00;101187.91;4960831;28;20427;-83
2023/07/19 03:30:57;;;;;;;5.32;4.22;;;;;;;14.92;100.00;101188.84;4959754;28;20430;-83
2023/07/19 03:33:23;;;;;;;8.75;4.50;;;;;;;14.84;100.00;101184.56;4960174;28;20039;-83
2023/07/19 03:35:48;;;;;;;9.95;5.00;;;;;;;14.74;100.00;101184.31;4960016;28;20041;-83
2023/07/19 03:38:14;;;;;;;8.17;5.40;;;;;;;14.74;100.00;101181.59;4959552;28;20113;-83
2023/07/19 03:40:40;;;;;;;7.43;4.53;;;;;;;14.80;100.00;101186.09;4959994;28;20023;-83
2023/07/19 03:43:05;;;;;;;5.80;4.47;;;;;;;14.91;100.00;101184.44;4959278;28;20483;-83
2023/07/19 03:45:31;;;;;;;11.43;4.70;;;;;;;14.90;100.00;101180.06;4944048;28;20081;-83
2023/07/19 03:47:56;;;;;;;9.03;4.93;;;;;;;14.88;100.00;101185.78;4944105;28;20039;-83
2023/07/19 03:50:24;;;;;;;7.43;5.20;;;;;;;14.89;100.00;101183.88;4996319;28;20349;-83
2023/07/19 03:52:49;;;;;;;8.75;5.18;;;;;;;14.91;100.00;101184.44;4978894;28;20053;-88
2023/07/19 03:55:15;;;;;;;10.33;4.97;;;;;;;14.99;100.00;101186.84;4962459;28;20491;-87
2023/07/19 03:57:48;;;;;;;9.80;4.67;;;;;;;15.00;100.00;101184.94;4995314;28;20053;-87
2023/07/19 04:00:13;;;;;;;7.30;4.80;;;;;;;15.04;100.00;101191.59;4979508;28;20026;-86
2023/07/19 04:02:41;;;;;;;11.03;4.50;;;;;;;15.09;100.00;101195.28;4978836;28;20391;-87
2023/07/19 04:05:07;;;;;;;6.15;4.47;;;;;;;15.16;100.00;101189.72;4979041;28;20031;-86
2023/07/19 04:07:33;;;;;;;6.75;4.45;;;;;;;15.23;100.00;101184.94;4994187;28;20189;-87
2023/07/19 04:10:03;;;;;;;10.70;4.80;;;;;;;15.30;100.00;101186.75;4978420;28;20026;-87
2023/07/19 04:12:28;;;;;;;6.95;4.38;;;;;;;15.37;100.00;101179.25;4946977;28;20042;-87
2023/07/19 04:14:54;;;;;;;7.07;4.53;;;;;;;15.43;100.00;101183.75;4961966;28;20038;-86
2023/07/19 04:17:22;;;;;;;8.43;4.67;;;;;;;15.56;100.00;101175.28;4978216;28;20525;-86
2023/07/19 04:19:49;;;;;;;9.25;4.85;;;;;;;15.63;100.00;101177.06;4978957;28;20042;-86
2023/07/19 04:22:18;;;;;;;8.15;4.40;;;;;;;15.71;100.00;101174.78;4978306;28;20046;-86
2023/07/19 04:24:49;;;;;;;5.65;4.50;;;;;;;15.79;100.00;101185.34;4962281;28;20046;-86
2023/07/19 04:27:14;;;;;;;6.72;4.68;;;;;;;15.85;100.00;101180.00;4962165;28;20116;-86
2023/07/19 04:29:42;;;;;;;11.03;5.00;;;;;;;15.88;100.00;101180.34;4962275;28;20126;-86
2023/07/19 04:32:07;;;;;;;8.10;4.68;;;;;;;15.92;100.00;101181.50;4978181;28;20034;-86
2023/07/19 04:34:38;;;;;;;7.20;4.80;;;;;;;15.89;99.96;101176.53;4977771;28;20043;-87
2023/07/19 04:37:11;;;;;;;8.07;4.40;;;;;;;15.93;99.95;101180.44;4962594;28;20497;-87
2023/07/19 04:39:39;;;;;;;8.48;5.07;;;;;;;15.93;98.96;101183.19;4995337;28;20038;-86
2023/07/19 04:42:05;;;;;;;8.48;4.63;;;;;;;15.95;99.09;101189.25;4961788;28;20045;-88
2023/07/19 04:44:30;;;;;;;7.20;4.60;;;;;;;15.99;99.87;101191.50;4961896;28;20058;-88
2023/07/19 04:46:58;;;;;;;8.18;4.60;;;;;;;15.94;99.22;101186.75;5010566;28;20125;-88
2023/07/19 04:49:27;;;;;;;8.57;4.53;;;;;;;15.93;100.00;101187.84;4977068;28;20064;-88
2023/07/19 04:51:52;;;;;;;7.87;4.73;;;;;;;15.96;100.00;101192.81;4994173;28;20046;-88
2023/07/19 04:54:18;;;;;;;9.52;4.68;;;;;;;15.98;99.97;101196.13;4977888;28;20034;-88
2023/07/19 04:56:43;;;;;;;9.47;4.83;;;;;;;15.98;99.44;101201.63;4994799;28;20042;-88
2023/07/19 04:59:09;;;;;;;7.03;4.50;;;;;;;16.01;99.42;101206.59;4978274;28;20349;-88
2023/07/19 05:01:35;;;;;;;6.80;4.63;;;;;;;16.01;99.73;101203.84;5010070;28;20121;-88
2023/07/19 05:04:03;;;;;;;12.90;5.50;;;;;;;16.03;98.71;101198.97;4977434;28;20395;-88
2023/07/19 05:06:36;;;;;;;9.30;4.70;;;;;;;16.10;99.05;101201.56;4977558;28;20269;-88
2023/07/19 05:09:05;;;;;;;6.57;4.97;;;;;;;16.16;98.09;101203.31;5010082;28;20041;-88
2023/07/19 05:11:53;;;;;;;6.80;5.18;;;;;;;16.24;98.23;101199.34;4977094;28;20068;-88
2023/07/19 05:14:23;;;;;;;8.73;5.03;;;;;;;16.31;97.67;101200.91;4977066;28;20035;-88
2023/07/19 05:16:52;;;;;;;9.70;4.50;;;;;;;16.41;97.39;101199.41;4977558;28;20041;-91
2023/07/19 05:19:20;;;;;;;10.83;4.97;;;;;;;16.51;95.88;101199.59;4977659;28;20030;-91
2023/07/19 05:21:46;;;;;;;8.07;4.60;;;;;;;16.62;95.62;101203.34;4977678;28;20039;-94
2023/07/19 05:24:12;;;;;;;6.50;4.37;;;;;;;16.74;94.76;101201.38;4978252;28;20482;-92
2023/07/19 05:26:44;;;;;;;9.50;4.72;;;;;;;16.83;94.10;101194.41;4994919;28;20030;-92
2023/07/19 05:29:10;;;;;;;10.52;4.75;;;;;;;16.97;93.71;101199.56;5011266;28;20430;-93
2023/07/19 05:31:36;;;;;;;9.68;4.95;;;;;;;17.12;93.10;101197.06;4977796;28;20038;-93
2023/07/19 05:34:03;;;;;;;6.40;4.90;;;;;;;17.21;91.35;101189.25;4995220;28;20096;-94
2023/07/19 05:36:30;;;;;;;7.18;4.70;;;;;;;17.27;91.94;101191.00;4977806;28;20033;-93
2023/07/19 05:38:56;;;;;;;8.55;4.55;;;;;;;17.41;92.86;101183.22;4978166;28;20125;-94
2023/07/19 05:41:21;;;;;;;11.70;5.10;;;;;;;17.55;90.79;101183.69;4978039;28;20058;-94
2023/07/19 05:43:48;;;;;;;12.23;5.20;;;;;;;17.59;89.94;101189.50;4978034;28;20351;-94
2023/07/19 05:46:23;;;;;;;;;;;;;;;;;;;;;
2023/07/19 05:48:52;;;;;;;9.27;4.50;;;;;;;17.65;89.76;101186.56;4995991;28;20487;-94
2023/07/19 05:51:25;;;;;;;12.43;4.78;;;;;;;17.75;89.63;101193.28;4977735;28;20042;-94
2023/07/19 05:53:54;;;;;;;13.10;4.95;;;;;;;17.88;89.40;101190.16;4961933;28;20051;-94
2023/07/19 05:56:20;;;;;;;11.55;4.57;;;;;;;17.96;87.52;101189.72;4978734;28;20035;-94
2023/07/19 05:58:48;;;;;;;14.00;4.85;;;;;;;18.02;86.17;101193.34;4977818;28;20535;-94
2023/07/19 06:01:19;;;;;;;9.47;4.60;;;;;;;18.02;85.99;101191.44;4961769;28;20049;-93
2023/07/19 06:03:53;;;;;;;9.20;4.70;;;;;;;18.02;85.25;101187.88;4980888;28;20042;-94
2023/07/19 06:06:40;;;;;;;;;;;;;;;;;;;;;
2023/07/19 06:09:20;;;;;;;9.18;5.53;;;;;;;17.98;85.11;101194.94;4979933;28;20467;-94
2023/07/19 06:11:49;;;;;;;8.27;4.43;;;;;;;18.04;85.39;101189.28;4977795;28;20030;-93
2023/07/19 06:14:16;;;;;;;9.07;4.60;;;;;;;18.17;84.87;101190.78;4993920;28;20039;-91
2023/07/19 06:16:42;;;;;;;9.45;4.70;;;;;;;18.31;84.15;101193.94;4961876;28;20031;-90
2023/07/19 06:19:19;;;;;;;12.55;5.15;;;;;;;18.44;83.62;101195.47;4977806;28;20093;-96
2023/07/19 06:21:45;;;;;;;10.73;4.70;;;;;;;18.70;83.08;101202.00;4978118;28;20044;-96
2023/07/19 06:24:10;;;;;;;7.65;5.18;;;;;;;18.83;81.46;101195.25;4977924;28;20459;-96
2023/07/19 06:26:38;;;;;;;11.00;5.47;;;;;;;18.94;80.91;101182.44;4977536;28;20049;-95
2023/07/19 06:29:11;;;;;;;9.50;5.20;;;;;;;18.98;80.11;101185.50;4994887;28;20037;-96
2023/07/19 06:31:37;;;;;;;11.18;5.10;;;;;;;18.89;79.63;101180.47;4981612;28;20081;-96
2023/07/19 06:34:02;;;;;;;8.40;4.83;;;;;;;18.74;79.69;101183.91;4982588;28;20038;-96
2023/07/19 06:36:28;;;;;;;8.45;4.70;;;;;;;18.83;80.85;101184.25;4981295;28;20034;-96
2023/07/19 06:39:01;;;;;;;12.90;5.00;;;;;;;18.92;80.35;101179.13;4965178;28;20149;-96
2023/07/19 06:41:32;;;;;;;7.90;5.15;;;;;;;18.83;79.90;101189.75;4965899;28;20133;-95
2023/07/19 06:43:57;;;;;;;9.30;5.07;;;;;;;18.70;81.04;101191.00;4982021;28;20080;-95
2023/07/19 06:46:32;;;;;;;8.95;4.78;;;;;;;18.69;81.83;101189.38;4998363;28;20121;-95
2023/07/19 06:49:03;;;;;;;9.88;5.05;;;;;;;18.69;82.61;101189.38;5006786;28;20061;-92
2023/07/19 06:51:31;;;;;;;8.83;4.60;;;;;;;18.69;83.29;101192.13;4961352;28;20122;-93
2023/07/19 06:54:06;;;;;;;8.68;4.32;;;;;;;18.73;82.50;101185.00;4978439;28;20031;-92
2023/07/19 06:56:34;;;;;;;11.40;4.70;;;;;;;18.82;83.33;101190.00;4960859;28;20030;-93
2023/07/19 06:59:22;;;;;;;12.73;5.75;;;;;;;18.97;82.80;101190.19;4945247;28;20121;-93
2023/07/19 07:01:48;;;;;;;13.55;4.80;;;;;;;19.02;81.65;101187.44;4961414;28;20042;-93
2023/07/19 07:04:13;;;;;;;12.17;4.53;;;;;;;19.22;81.70;101197.78;4960991;28;20039;-92
2023/07/19 07:06:39;;;;;;;10.07;4.27;;;;;;;19.41;80.39;101191.81;4961191;28;20027;-92
2023/07/19 07:09:05;;;;;;;9.97;4.37;;;;;;;19.68;79.99;101199.09;4961183;28;20037;-93
2023/07/19 07:11:38;;;;;;;5.83;4.03;;;;;;;19.95;77.87;101201.75;4961189;28;20278;-92
2023/07/19 07:14:12;;;;;;;8.80;4.20;;;;;;;20.12;75.57;101202.34;4946006;28;20042;-92
2023/07/19 07:16:42;;;;;;;8.40;4.18;;;;;;;20.18;74.62;101196.84;4945422;28;20364;-91
2023/07/19 07:19:17;;;;;;;10.40;4.07;;;;;;;20.33;74.55;101200.47;4961046;28;20093;-93
2023/07/19 07:21:45;;;;;;;10.47;3.77;;;;;;;20.46;72.87;101199.13;4960838;28;20053;-93
2023/07/19 07:24:13;;;;;;;6.97;3.83;;;;;;;20.43;72.68;101202.44;4960418;28;20034;-93
2023/07/19 07:26:41;;;;;;;6.85;3.97;;;;;;;20.59;72.73;101197.72;4960403;28;20452;-93
2023/07/19 07:29:09;;;;;;;6.85;4.38;;;;;;;20.72;73.09;101196.41;4944697;28;20041;-93
2023/07/19 07:31:37;;;;;;;9.77;3.92;;;;;;;20.72;72.15;101204.69;4960627;28;20069;-93
2023/07/19 07:34:12;;;;;;;;;;;;;;;;;;;;;
2023/07/19 07:36:38;;;;;;;6.20;3.42;;;;;;;20.76;71.10;101180.97;4962295;28;20039;-93
2023/07/19 07:39:06;;;;;;;8.37;3.80;;;;;;;20.86;70.98;101177.41;4992568;28;20061;-93
2023/07/19 07:41:40;;;;;;;9.77;3.60;;;;;;;20.96;69.28;101187.56;4943980;28;20034;-93
2023/07/19 07:44:08;;;;;;;9.73;3.67;;;;;;;21.00;70.13;101185.91;4960569;28;20122;-92
2023/07/19 07:46:36;;;;;;;6.90;3.20;;;;;;;20.95;68.77;101177.63;4961186;28;20035;-93
2023/07/19 07:49:04;;;;;;;6.28;2.97;;;;;;;20.85;69.92;101187.56;4951192;28;20078;-93
2023/07/19 07:51:39;;;;;;;7.20;3.10;;;;;;;20.93;69.40;101188.94;4963568;28;20085;-93
2023/07/19 07:54:07;;;;;;;10.07;3.25;;;;;;;20.98;68.61;101188.97;4964586;28;20065;-93
2023/07/19 07:56:40;;;;;;;7.55;3.42;;;;;;;21.05;68.38;101183.13;4978995;28;20022;-92
2023/07/19 07:59:06;;;;;;;11.65;3.33;;;;;;;21.00;68.17;101185.91;4979662;28;20030;-92
2023/07/19 08:01:31;;;;;;;6.40;2.70;;;;;;;21.16;67.93;101187.53;4979172;28;20038;-92
2023/07/19 08:04:21;;;;;;;8.57;3.00;;;;;;;21.23;68.04;101176.22;4947281;28;20133;-92
2023/07/19 08:06:53;;;;;;;11.00;2.80;;;;;;;21.22;65.21;101174.56;4978963;28;20271;-93
2023/07/19 08:09:44;;;;;;;8.90;2.38;;;;;;;21.27;65.36;101182.00;4979827;28;20058;-93
2023/07/19 08:12:12;;;;;;;6.18;2.50;;;;;;;21.16;64.96;101186.72;4964927;28;20122;-93
2023/07/19 08:14:37;;;;;;;9.32;3.05;;;;;;;21.21;65.48;101175.66;4978904;28;20523;-93
2023/07/19 08:17:03;;;;;;;9.67;3.20;;;;;;;21.37;64.96;101170.94;4979039;28;20046;-93
2023/07/19 08:19:29;;;;;;;7.50;3.13;;;;;;;21.55;63.00;101162.09;4979018;28;20022;-93
2023/07/19 08:22:19;;;;;;;8.20;3.17;;;;;;;21.67;62.11;101163.69;4978881;28;20034;-92
2023/07/19 08:24:50;;;;;;;6.63;3.30;;;;;;;21.84;62.59;101166.13;4995021;28;20050;-93
2023/07/19 08:27:24;;;;;;;7.73;2.60;;;;;;;21.92;61.31;101170.22;4978502;28;20065;-94
2023/07/19 08:30:00;;;;;;;7.88;2.75;;;;;;;21.99;60.19;101163.25;4963698;28;20038;-92
2023/07/19 08:32:56;;;;;;;5.63;1.90;;;;;;;22.22;58.33;101160.94;5011235;28;20034;-93
2023/07/19 08:35:31;;;;;;;8.55;2.38;;;;;;;22.38;58.54;101170.78;4995006;28;20092;-93
2023/07/19 08:37:59;;;;;;;7.80;2.45;;;;;;;22.25;59.31;101169.47;4978902;28;20081;-93
2023/07/19 08:40:34;;;;;;;8.80;3.03;;;;;;;22.23;60.63;101174.47;4978711;28;20046;-92
2023/07/19 08:43:13;;;;;;;7.60;2.88;;;;;;;22.21;61.87;101179.44;4996046;28;20158;-92
2023/07/19 08:45:42;;;;;;;9.10;3.30;;;;;;;21.93;62.72;101175.44;4978737;28;20423;-92
2023/07/19 08:48:10;;;;;;;8.32;2.90;;;;;;;21.51;63.56;101172.03;4978922;28;20088;-93
2023/07/19 08:50:36;;;;;;;5.90;2.60;;;;;;;21.35;62.77;101173.16;4979715;28;20034;-93
2023/07/19 08:53:07;;;;;;;7.07;2.67;;;;;;;21.23;64.07;101161.59;4979016;28;20034;-93
2023/07/19 08:55:39;;;;;;;4.90;2.70;;;;;;;21.19;64.43;101164.91;4963515;28;20030;-92
2023/07/19 08:58:07;;;;;;;5.30;2.88;;;;;;;21.24;65.29;101177.88;4963105;28;20125;-92
2023/07/19 09:00:37;;;;;;;8.10;2.85;;;;;;;21.50;64.82;101175.91;4962725;28;20039;-93
2023/07/19 09:03:05;;;;;;;7.03;3.30;;;;;;;21.85;63.14;101165.81;4963539;28;20387;-93
2023/07/19 09:05:38;;;;;;;6.40;2.87;;;;;;;22.03;63.03;101171.81;4978306;28;20035;-92
2023/07/19 09:08:09;;;;;;;6.20;2.95;;;;;;;22.23;62.31;101170.84;4978452;28;20066;-94
2023/07/19 09:10:40;;;;;;;8.13;3.17;;;;;;;22.49;61.20;101171.53;4978725;28;20030;-96
2023/07/19 09:13:13;;;;;;;6.50;2.90;;;;;;;22.72;60.45;101172.75;4963042;28;20068;-92
2023/07/19 09:15:42;;;;;;;9.05;2.97;;;;;;;22.92;61.06;101174.47;4979294;28;20026;-92
2023/07/19 09:18:15;;;;;;;9.43;3.33;;;;;;;23.02;60.66;101170.00;4977854;28;20068;-93
2023/07/19 09:20:43;;;;;;;6.25;3.20;;;;;;;23.06;60.01;101177.41;4978728;28;20030;-92
2023/07/19 09:23:15;;;;;;;8.80;3.08;;;;;;;23.37;59.83;101182.66;4977477;28;20033;-91
2023/07/19 09:26:10;;;;;;;7.55;2.90;;;;;;;23.48;59.22;101166.75;4977585;28;20026;-90
2023/07/19 09:28:41;;;;;;;6.35;2.72;;;;;;;23.39;59.05;101165.75;4965677;28;20041;-93
2023/07/19 09:31:07;;;;;;;9.33;3.30;;;;;;;23.40;58.54;101165.47;4995146;28;20030;-92
2023/07/19 09:33:32;;;;;;;5.32;2.50;;;;;;;23.32;58.40;101177.16;4961210;28;20097;-89
2023/07/19 09:36:03;;;;;;;7.33;2.93;;;;;;;23.18;57.72;101177.03;4977115;28;20030;-90
2023/07/19 09:38:28;;;;;;;5.93;2.42;;;;;;;23.14;57.09;101172.41;4962175;28;20040;-89
2023/07/19 09:43:47;;;;;;;7.95;2.88;;;;;;;23.24;58.24;101169.53;4984344;28;20035;-89
2023/07/19 09:46:15;;;;;;;4.05;2.58;;;;;;;23.10;58.85;101178.53;4976518;28;20045;-90
2023/07/19 09:48:43;;;;;;;10.60;3.30;;;;;;;23.20;58.83;101173.97;4974775;28;20479;-92
2023/07/19 09:51:13;;;;;;;6.87;2.80;;;;;;;23.33;59.11;101169.69;4994841;28;20086;-91
2023/07/19 09:53:40;;;;;;;6.93;2.30;;;;;;;23.44;58.09;101162.91;4976849;28;20089;-91
2023/07/19 09:56:09;;;;;;;6.55;2.45;;;;;;;23.38;58.54;101164.91;4977495;28;20038;-86
2023/07/19 09:58:35;;;;;;;7.03;2.30;;;;;;;23.53;58.90;101166.66;4993749;28;20026;-86
2023/07/19 10:01:01;;;;;;;6.65;2.53;;;;;;;23.79;58.11;101166.38;4976942;28;20030;-85
2023/07/19 10:03:26;;;;;;;9.97;2.43;;;;;;;23.71;57.91;101164.25;4992788;28;20050;-85
2023/07/19 10:05:56;;;;;;;9.57;2.57;;;;;;;23.71;57.47;101162.31;4997180;28;20483;-86
2023/07/19 10:08:22;;;;;;;6.45;2.42;;;;;;;23.57;57.37;101167.72;4964172;28;20129;-86
2023/07/19 10:10:57;;;;;;;7.00;2.30;;;;;;;23.68;58.27;101173.16;4980349;28;20109;-86
2023/07/19 10:13:31;;;;;;;6.25;2.10;;;;;;;23.54;57.96;101170.28;4972839;28;20436;-86
2023/07/19 10:15:57;;;;;;;7.05;2.45;;;;;;;23.53;58.05;101168.63;4980726;28;20378;-86
2023/07/19 10:18:23;;;;;;;5.77;2.00;;;;;;;23.55;57.54;101177.44;4980320;28;20026;-85
2023/07/19 10:21:03;;;;;;;4.23;2.27;;;;;;;23.69;56.95;101172.84;4980570;28;20035;-86
2023/07/19 10:23:34;;;;;;;5.03;2.07;;;;;;;23.96;56.77;101163.94;4997727;28;20308;-86
2023/07/19 10:26:06;;;;;;;4.47;2.15;;;;;;;23.96;56.50;101163.09;4964380;28;20060;-85
2023/07/19 10:28:31;;;;;;;3.60;1.73;;;;;;;24.04;54.82;101158.88;4963941;28;20475;-86
2023/07/19 10:31:01;;;;;;;5.60;1.73;;;;;;;24.15;54.55;101176.97;4980300;28;20034;-86
2023/07/19 10:33:29;;;;;;;6.50;2.10;;;;;;;24.42;53.73;101175.47;4980142;28;20058;-86
2023/07/19 10:36:14;;;;;;;5.97;2.15;;;;;;;24.97;52.44;101161.81;4963365;28;20398;-85
2023/07/19 10:38:40;;;;;;;3.63;1.65;;;;;;;24.89;51.89;101156.13;4995635;28;20494;-86
2023/07/19 10:41:07;;;;;;;4.73;2.00;;;;;;;24.89;51.44;101159.72;4963557;28;20038;-85
2023/07/19 10:43:35;;;;;;;4.28;1.40;;;;;;;24.66;50.83;101172.63;4980061;28;20478;-85
2023/07/19 10:46:04;;;;;;;5.75;1.95;;;;;;;24.44;51.95;101162.13;4979874;28;20034;-85
2023/07/19 10:48:34;;;;;;;5.22;1.75;;;;;;;24.30;52.41;101171.22;4997036;28;20088;-86
2023/07/19 10:51:05;;;;;;;4.87;1.73;;;;;;;24.27;53.17;101157.97;5012753;28;20392;-85
2023/07/19 10:53:57;;;;;;;4.95;1.60;;;;;;;24.51;52.81;101162.59;4979653;28;20027;-86
2023/07/19 10:56:23;;;;;;;6.68;1.60;;;;;;;24.86;50.97;101161.19;4997189;28;20026;-85
2023/07/19 10:58:57;;;;;;;3.47;1.70;;;;;;;24.58;51.77;101156.63;4980168;28;20042;-86
2023/07/19 11:01:23;;;;;;;4.07;1.90;;;;;;;24.28;53.40;101161.56;4979790;28;20398;-85
2023/07/19 11:03:48;;;;;;;5.72;2.08;;;;;;;23.61;57.64;101154.94;4980161;28;20045;-85
2023/07/19 11:06:14;;;;;;;3.37;1.60;;;;;;;22.28;70.84;101178.28;4980253;28;20034;-86
2023/07/19 11:08:39;;;;;;;6.22;2.10;;;;;;;20.97;83.57;101176.25;4995559;28;20084;-86
2023/07/19 11:11:07;;;;;;;4.00;2.07;;;;;;;20.39;85.94;101179.25;4979456;28;20042;-86
2023/07/19 11:13:38;;;;;;;6.95;2.17;;;;;;;20.31;83.77;101168.78;4979036;28;20030;-85
2023/07/19 11:16:07;;;;;;;6.18;1.80;;;;;;;20.68;87.68;101162.22;4978877;28;20034;-86
2023/07/19 11:18:39;;;;;;;5.00;2.10;;;;;;;20.98;84.04;101155.84;4963675;28;20050;-85
2023/07/19 11:21:06;;;;;;;5.32;1.70;;;;;;;20.94;77.27;101153.94;4996506;28;20034;-85
2023/07/19 11:23:38;;;;;;;7.18;1.88;;;;;;;21.51;76.14;101165.69;4963129;28;20454;-85
2023/07/19 11:26:04;;;;;;;6.65;1.80;;;;;;;22.02;71.90;101159.09;4979124;28;20061;-86
2023/07/19 11:28:44;;;;;;;3.17;1.70;;;;;;;23.70;62.33;101149.56;4979723;28;20038;-85
2023/07/19 11:31:25;;;;;;;3.20;1.40;;;;;;;25.11;55.45;101147.13;4996619;28;20070;-85
2023/07/19 11:33:57;;;;;;;3.10;1.17;;;;;;;25.07;57.43;101148.88;4996291;28;20034;-85
2023/07/19 11:36:25;;;;;;;6.63;1.80;;;;;;;27.54;50.21;101146.69;4979300;28;20039;-86
2023/07/19 11:38:51;;;;;;;3.75;1.30;;;;;;;30.41;43.32;101142.59;4978931;28;20037;-85
2023/07/19 11:41:17;;;;;;;6.73;1.40;;;;;;;31.51;38.12;101145.94;4962504;28;20038;-85